Dublin, IN (47335)

05:31 AM EDT del 17 Settembre 2014 (GMT -0400)
Hagerstown | Change Station
CLOSE
Current Station
Stazione meteo personale
Location: Hagerstown, IN
Altitudine: 1086 ft
Stazioni meteo nelle vicinanze
Avvisi attivi: Special Statement Notifica attiva: Record Report

Alt. 1086 ft 39.91 °N, 85.14 °W | Updated 8 seconds ago

Parzialmente nuvoloso
Parzialmente nuvoloso
44.5 °F
Sembra 44 °F
N
0.0
Vento Variabile Vento da NO
Gusts 0.0 mph

Oggi
Massima -- | Minima -- °F
--% Possibilità di precip.
Ieri
Massima -- | Minima -- °F
Precip. -- in
7:23 AM 7:46 PM
Ultimo quarto, 37% visible
Pressione 30.07 in
Visibilità 4.0 miglia
Nuvole Sereno
Raffreddamento del vento 44 °F
Punto di rugiada 44 °F
Umidità 99%
Piovosità 0.00 in
Spessore del manto nevoso Non disponibile.
Raggi UV 0.0 fuori da 12
Polline 5.80 fuori da 12
Qualità dell'aria Non disponibile.
Flu Activity Non disponibile.
METAR KMIE 170853Z AUTO 00000KT 4SM BR CLR 07/06 A3007 RMK AO2 SLP181 T00670056 58011 $

More Conditions Fewer Conditions

Pressione 30.07 in
Visibilità 4.0 miglia
Nuvole Sereno
Raffreddamento del vento 44 °F
Punto di rugiada 44 °F
Umidità 99%
Piovosità 0.00 in
Spessore del manto nevoso Non disponibile.
Raggi UV 0.0 fuori da 12
Polline 5.80 fuori da 12
Qualità dell'aria Non disponibile.
Flu Activity Non disponibile.
METAR KMIE 170853Z AUTO 00000KT 4SM BR CLR 07/06 A3007 RMK AO2 SLP181 T00670056 58011 $

More Conditions Fewer Conditions

10-Day Weather Forecast

Almanac

Astronomia

Sep. 17, 2014 Alba Tramonto
Ora attuale 07:23 EDT 19:46 EDT
Crepuscolo civile 06:56 EDT 20:13 EDT
Crepuscolo nautico 06:24 EDT 20:44 EDT
Crepuscolo astronomico 05:52 EDT 21:17 EDT
Luna 01:23 EDT 15:54 EDT
Estensione della luce visibile 13h 16m
Lunghezza del giorno
12h 22m
Tomorrow will be 2m 35s shorter.
Ultimo quarto, 37% of the Moon is Illuminated
Oggi
Ultimo quarto
Set 24
Nuovo
Ott 1
Primo quarto
Ott 8
Luna piena
Ott 15
Ultimo quarto

Gli estremi di oggi

State Highs State Lows

Community

WunderPhotos

Upload Photos

1,753,991 foto caricate!

Nearby

Profondità neve

Stazione Profondità Altitudine
Non sono state evidenziate nuove nevicate

Attività sismica

Città  Distanza Mag. Data & Ora
Non sono state riportate attività sismiche nelle vicinanze.
Minimo Magnitudo Mostrato è 2.5.

Temperature delle acque costiere

Località Temperatura
Nessun dato dalle stazioni

Stazioni meteo nelle vicinanze